Time,TemperatureF,DewpointF,PressureIn,WindDirection,WindDirectionDegrees,WindSpeedMPH,WindSpeedGustMPH,Humidity,HourlyPrecipIn,Conditions,Clouds,dailyrainin,SoftwareType,DateUTC
2013-02-16 00:00:00,33.4,23.0,29.22,West,270,4.0,-999.0,65,0.00,,,0.00,Rainwise IP-100,2013-02-16 05:00:00,
2013-02-16 00:05:00,33.7,24.0,29.23,SW,225,5.0,-999.0,64,0.00,,,0.00,Rainwise IP-100,2013-02-16 05:05:00,
2013-02-16 00:10:00,33.9,24.0,29.23,WNW,292,6.0,-999.0,64,0.00,,,0.00,Rainwise IP-100,2013-02-16 05:10:00,
2013-02-16 00:15:00,34.1,24.0,29.23,WNW,292,6.0,-999.0,63,0.00,,,0.00,Rainwise IP-100,2013-02-16 05:15:00,
2013-02-16 00:20:00,34.3,23.0,29.23,WNW,292,4.0,-999.0,62,0.00,,,0.00,Rainwise IP-100,2013-02-16 05:20:00,
2013-02-16 00:22:00,34.5,23.0,29.24,West,270,5.0,-999.0,62,0.00,,,0.00,Rainwise IP-100,2013-02-16 05:22:00,
2013-02-16 00:27:00,34.7,23.0,29.24,WNW,292,7.0,-999.0,61,0.00,,,0.00,Rainwise IP-100,2013-02-16 05:27:00,
2013-02-16 00:33:00,34.5,23.0,29.24,West,270,3.0,-999.0,61,0.00,,,0.00,Rainwise IP-100,2013-02-16 05:33:00,
2013-02-16 00:38:00,34.5,23.0,29.24,NW,315,4.0,-999.0,62,0.00,,,0.00,Rainwise IP-100,2013-02-16 05:38:00,
2013-02-16 00:43:00,34.3,23.0,29.23,WNW,292,7.0,-999.0,62,0.00,,,0.00,Rainwise IP-100,2013-02-16 05:43:00,
2013-02-16 00:48:00,34.3,24.0,29.23,WNW,292,7.0,-999.0,64,0.00,,,0.00,Rainwise IP-100,2013-02-16 05:48:00,
2013-02-16 00:53:00,33.9,26.0,29.24,WNW,292,6.0,-999.0,68,0.00,,,0.00,Rainwise IP-100,2013-02-16 05:53:00,
2013-02-16 00:58:00,33.5,26.0,29.24,NNE,22,2.0,-999.0,71,0.00,,,0.00,Rainwise IP-100,2013-02-16 05:58:00,
2013-02-16 01:03:00,33.0,26.0,29.24,WNW,292,6.0,-999.0,74,0.00,,,0.00,Rainwise IP-100,2013-02-16 06:03:00,
2013-02-16 01:09:00,32.8,26.0,29.25,WNW,292,4.0,-999.0,76,0.00,,,0.00,Rainwise IP-100,2013-02-16 06:09:00,
2013-02-16 01:14:00,32.6,28.0,29.25,NW,315,4.0,-999.0,77,0.00,,,0.00,Rainwise IP-100,2013-02-16 06:14:00,
2013-02-16 01:19:00,32.3,26.0,29.25,North,360,1.0,-999.0,79,0.00,,,0.00,Rainwise IP-100,2013-02-16 06:19:00,
2013-02-16 01:24:00,32.0,28.0,29.25,NW,315,5.0,-999.0,82,0.00,,,0.00,Rainwise IP-100,2013-02-16 06:24:00,
2013-02-16 01:29:00,31.5,28.0,29.25,NW,315,7.0,-999.0,86,0.00,,,0.00,Rainwise IP-100,2013-02-16 06:29:00,
2013-02-16 01:34:00,31.2,28.0,29.25,WNW,292,3.0,-999.0,89,0.00,,,0.00,Rainwise IP-100,2013-02-16 06:34:00,
2013-02-16 01:39:00,30.9,28.0,29.25,NW,315,3.0,-999.0,91,0.00,,,0.00,Rainwise IP-100,2013-02-16 06:39:00,
2013-02-16 01:44:00,30.4,29.0,29.25,WNW,292,0.0,-999.0,92,0.00,,,0.00,Rainwise IP-100,2013-02-16 06:44:00,
2013-02-16 01:50:00,30.3,29.0,29.25,WNW,292,1.0,-999.0,93,0.00,,,0.00,Rainwise IP-100,2013-02-16 06:50:00,
2013-02-16 01:55:00,30.1,29.0,29.24,WNW,292,1.0,-999.0,93,0.00,,,0.00,Rainwise IP-100,2013-02-16 06:55:00,
2013-02-16 02:00:00,29.9,29.0,29.24,WNW,292,0.0,-999.0,94,0.00,,,0.00,Rainwise IP-100,2013-02-16 07:00:00,
2013-02-16 02:05:00,29.8,29.0,29.23,NW,315,0.0,-999.0,95,0.00,,,0.00,Rainwise IP-100,2013-02-16 07:05:00,
2013-02-16 02:10:00,29.7,29.0,29.23,NW,315,1.0,-999.0,95,0.00,,,0.00,Rainwise IP-100,2013-02-16 07:10:00,
2013-02-16 02:15:00,29.5,29.0,29.23,NW,315,0.0,-999.0,93,0.00,,,0.00,Rainwise IP-100,2013-02-16 07:15:00,
2013-02-16 02:16:00,29.5,29.0,29.23,NW,315,0.0,-999.0,93,0.00,,,0.00,Rainwise IP-100,2013-02-16 07:16:00,
2013-02-16 02:17:00,29.5,29.0,29.23,NW,315,0.0,-999.0,93,0.00,,,0.00,Rainwise IP-100,2013-02-16 07:17:00,
2013-02-16 02:22:00,29.5,29.0,29.23,NW,315,0.0,-999.0,92,0.00,,,0.00,Rainwise IP-100,2013-02-16 07:22:00,
2013-02-16 02:27:00,29.3,28.0,29.23,NW,315,0.0,-999.0,92,0.00,,,0.00,Rainwise IP-100,2013-02-16 07:27:00,
2013-02-16 02:32:00,28.9,28.0,29.23,NW,315,0.0,-999.0,92,0.00,,,0.00,Rainwise IP-100,2013-02-16 07:32:00,
2013-02-16 02:38:00,28.9,28.0,29.23,NW,315,0.0,-999.0,92,0.00,,,0.00,Rainwise IP-100,2013-02-16 07:38:00,
2013-02-16 02:43:00,28.8,28.0,29.23,NW,315,0.0,-999.0,92,0.00,,,0.00,Rainwise IP-100,2013-02-16 07:43:00,
2013-02-16 02:48:00,28.8,28.0,29.22,NW,315,0.0,-999.0,93,0.00,,,0.00,Rainwise IP-100,2013-02-16 07:48:00,
2013-02-16 02:53:00,28.7,28.0,29.22,NW,315,0.0,-999.0,93,0.00,,,0.00,Rainwise IP-100,2013-02-16 07:53:00,
2013-02-16 02:58:00,28.6,28.0,29.22,NW,315,0.0,-999.0,93,0.00,,,0.00,Rainwise IP-100,2013-02-16 07:58:00,
2013-02-16 03:03:00,28.5,28.0,29.22,NW,315,0.0,-999.0,93,0.00,,,0.00,Rainwise IP-100,2013-02-16 08:03:00,
2013-02-16 03:08:00,28.4,26.0,29.21,NW,315,0.0,-999.0,94,0.00,,,0.00,Rainwise IP-100,2013-02-16 08:08:00,
2013-02-16 03:14:00,28.4,26.0,29.21,NW,315,0.0,-999.0,95,0.00,,,0.00,Rainwise IP-100,2013-02-16 08:14:00,
2013-02-16 03:19:00,28.4,26.0,29.21,NW,315,0.0,-999.0,96,0.00,,,0.00,Rainwise IP-100,2013-02-16 08:19:00,
2013-02-16 03:24:00,28.4,28.0,29.21,NW,315,0.0,-999.0,97,0.00,,,0.00,Rainwise IP-100,2013-02-16 08:24:00,
2013-02-16 03:29:00,28.8,29.0,29.21,NW,315,0.0,-999.0,98,0.00,,,0.00,Rainwise IP-100,2013-02-16 08:29:00,
2013-02-16 03:34:00,28.8,29.0,29.21,NW,315,0.0,-999.0,98,0.00,,,0.00,Rainwise IP-100,2013-02-16 08:34:00,
2013-02-16 03:39:00,28.7,29.0,29.21,NW,315,0.0,-999.0,98,0.00,,,0.00,Rainwise IP-100,2013-02-16 08:39:00,
2013-02-16 03:44:00,28.5,29.0,29.21,NW,315,0.0,-999.0,98,0.00,,,0.00,Rainwise IP-100,2013-02-16 08:44:00,
2013-02-16 03:49:00,28.5,29.0,29.21,NW,315,0.0,-999.0,98,0.00,,,0.00,Rainwise IP-100,2013-02-16 08:49:00,
2013-02-16 03:55:00,28.4,28.0,29.21,NW,315,0.0,-999.0,98,0.00,,,0.00,Rainwise IP-100,2013-02-16 08:55:00,
2013-02-16 04:00:00,28.4,28.0,29.21,NW,315,0.0,-999.0,98,0.00,,,0.00,Rainwise IP-100,2013-02-16 09:00:00,
2013-02-16 04:05:00,28.4,28.0,29.21,NW,315,0.0,-999.0,98,0.00,,,0.00,Rainwise IP-100,2013-02-16 09:05:00,
2013-02-16 04:10:00,28.5,29.0,29.21,NW,315,0.0,-999.0,98,0.00,,,0.00,Rainwise IP-100,2013-02-16 09:10:00,
2013-02-16 04:15:00,28.4,28.0,29.21,NW,315,0.0,-999.0,98,0.00,,,0.00,Rainwise IP-100,2013-02-16 09:15:00,
2013-02-16 04:20:00,28.3,28.0,29.21,NW,315,0.0,-999.0,98,0.00,,,0.00,Rainwise IP-100,2013-02-16 09:20:00,
2013-02-16 04:25:00,28.2,28.0,29.21,NW,315,0.0,-999.0,98,0.00,,,0.00,Rainwise IP-100,2013-02-16 09:25:00,
2013-02-16 04:31:00,28.1,28.0,29.21,NW,315,0.0,-999.0,98,0.00,,,0.00,Rainwise IP-100,2013-02-16 09:31:00,
2013-02-16 04:36:00,28.1,28.0,29.20,NW,315,0.0,-999.0,98,0.00,,,0.00,Rainwise IP-100,2013-02-16 09:36:00,
2013-02-16 04:41:00,28.3,28.0,29.21,NW,315,0.0,-999.0,98,0.00,,,0.00,Rainwise IP-100,2013-02-16 09:41:00,
2013-02-16 04:46:00,28.2,28.0,29.21,NW,315,0.0,-999.0,98,0.00,,,0.00,Rainwise IP-100,2013-02-16 09:46:00,
2013-02-16 04:51:00,28.2,28.0,29.21,NW,315,0.0,-999.0,98,0.00,,,0.00,Rainwise IP-100,2013-02-16 09:51:00,
2013-02-16 04:56:00,27.9,28.0,29.21,NW,315,0.0,-999.0,98,0.00,,,0.00,Rainwise IP-100,2013-02-16 09:56:00,
2013-02-16 05:01:00,27.9,28.0,29.21,NW,315,0.0,-999.0,98,0.00,,,0.00,Rainwise IP-100,2013-02-16 10:01:00,
2013-02-16 05:06:00,27.9,28.0,29.21,NW,315,0.0,-999.0,98,0.00,,,0.00,Rainwise IP-100,2013-02-16 10:06:00,
2013-02-16 05:12:00,27.9,28.0,29.21,NW,315,0.0,-999.0,98,0.00,,,0.00,Rainwise IP-100,2013-02-16 10:12:00,
2013-02-16 05:17:00,28.1,28.0,29.21,NW,315,0.0,-999.0,99,0.00,,,0.00,Rainwise IP-100,2013-02-16 10:17:00,
2013-02-16 05:22:00,28.0,28.0,29.21,NW,315,0.0,-999.0,99,0.00,,,0.00,Rainwise IP-100,2013-02-16 10:22:00,
2013-02-16 05:27:00,28.0,28.0,29.21,NW,315,0.0,-999.0,99,0.00,,,0.00,Rainwise IP-100,2013-02-16 10:27:00,
2013-02-16 05:32:00,28.0,28.0,29.21,NW,315,0.0,-999.0,100,0.00,,,0.00,Rainwise IP-100,2013-02-16 10:32:00,
2013-02-16 05:37:00,27.9,28.0,29.20,NW,315,0.0,-999.0,99,0.00,,,0.00,Rainwise IP-100,2013-02-16 10:37:00,
2013-02-16 05:42:00,27.7,28.0,29.20,NW,315,0.0,-999.0,100,0.00,,,0.00,Rainwise IP-100,2013-02-16 10:42:00,
2013-02-16 05:48:00,27.6,28.0,29.20,NW,315,0.0,-999.0,100,0.00,,,0.00,Rainwise IP-100,2013-02-16 10:48:00,
2013-02-16 05:53:00,27.7,28.0,29.19,NW,315,0.0,-999.0,100,0.00,,,0.00,Rainwise IP-100,2013-02-16 10:53:00,
2013-02-16 05:58:00,27.5,28.0,29.20,NW,315,0.0,-999.0,100,0.00,,,0.00,Rainwise IP-100,2013-02-16 10:58:00,
2013-02-16 06:03:00,26.9,28.0,29.19,NW,315,0.0,-999.0,100,0.00,,,0.00,Rainwise IP-100,2013-02-16 11:03:00,
2013-02-16 06:08:00,26.6,28.0,29.20,NW,315,0.0,-999.0,100,0.00,,,0.00,Rainwise IP-100,2013-02-16 11:08:00,
2013-02-16 06:13:00,26.1,26.0,29.20,NW,315,0.0,-999.0,100,0.00,,,0.00,Rainwise IP-100,2013-02-16 11:13:00,
2013-02-16 06:18:00,25.5,26.0,29.20,NW,315,0.0,-999.0,100,0.00,,,0.00,Rainwise IP-100,2013-02-16 11:18:00,
2013-02-16 06:24:00,25.3,26.0,29.20,NW,315,0.0,-999.0,100,0.00,,,0.00,Rainwise IP-100,2013-02-16 11:24:00,
2013-02-16 06:29:00,25.1,26.0,29.20,NW,315,0.0,-999.0,100,0.00,,,0.00,Rainwise IP-100,2013-02-16 11:29:00,
2013-02-16 06:34:00,24.9,26.0,29.20,NW,315,0.0,-999.0,100,0.00,,,0.00,Rainwise IP-100,2013-02-16 11:34:00,
2013-02-16 06:39:00,24.8,26.0,29.20,NW,315,0.0,-999.0,100,0.00,,,0.00,Rainwise IP-100,2013-02-16 11:39:00,
2013-02-16 06:44:00,24.6,26.0,29.20,NW,315,0.0,-999.0,100,0.00,,,0.00,Rainwise IP-100,2013-02-16 11:44:00,
2013-02-16 06:49:00,24.4,24.0,29.20,NW,315,0.0,-999.0,100,0.00,,,0.00,Rainwise IP-100,2013-02-16 11:49:00,
2013-02-16 06:54:00,24.4,24.0,29.20,NW,315,0.0,-999.0,100,0.00,,,0.00,Rainwise IP-100,2013-02-16 11:54:00,
2013-02-16 06:59:00,24.6,26.0,29.20,NW,315,0.0,-999.0,100,0.00,,,0.00,Rainwise IP-100,2013-02-16 11:59:00,
2013-02-16 07:05:00,24.7,26.0,29.21,NW,315,0.0,-999.0,100,0.00,,,0.00,Rainwise IP-100,2013-02-16 12:05:00,
2013-02-16 07:10:00,24.9,26.0,29.21,NW,315,0.0,-999.0,100,0.00,,,0.00,Rainwise IP-100,2013-02-16 12:10:00,
2013-02-16 07:15:00,25.1,26.0,29.21,NW,315,0.0,-999.0,100,0.00,,,0.00,Rainwise IP-100,2013-02-16 12:15:00,
2013-02-16 07:20:00,25.3,26.0,29.21,NW,315,0.0,-999.0,100,0.00,,,0.00,Rainwise IP-100,2013-02-16 12:20:00,
2013-02-16 07:25:00,25.5,26.0,29.21,NW,315,0.0,-999.0,100,0.00,,,0.00,Rainwise IP-100,2013-02-16 12:25:00,
2013-02-16 07:30:00,25.6,26.0,29.21,NW,315,0.0,-999.0,100,0.00,,,0.00,Rainwise IP-100,2013-02-16 12:30:00,
2013-02-16 07:35:00,25.7,26.0,29.21,NW,315,0.0,-999.0,100,0.00,,,0.00,Rainwise IP-100,2013-02-16 12:35:00,
2013-02-16 07:41:00,25.9,26.0,29.21,NW,315,0.0,-999.0,100,0.00,,,0.00,Rainwise IP-100,2013-02-16 12:41:00,
2013-02-16 07:46:00,25.9,26.0,29.22,NW,315,0.0,-999.0,100,0.00,,,0.00,Rainwise IP-100,2013-02-16 12:46:00,
2013-02-16 07:51:00,26.2,26.0,29.22,NW,315,0.0,-999.0,100,0.00,,,0.00,Rainwise IP-100,2013-02-16 12:51:00,
2013-02-16 07:56:00,26.5,26.0,29.22,NW,315,1.0,-999.0,96,0.00,,,0.00,Rainwise IP-100,2013-02-16 12:56:00,
2013-02-16 08:01:00,26.9,26.0,29.21,NW,315,0.0,-999.0,96,0.00,,,0.00,Rainwise IP-100,2013-02-16 13:01:00,
2013-02-16 08:06:00,27.6,26.0,29.21,NW,315,0.0,-999.0,95,0.00,,,0.00,Rainwise IP-100,2013-02-16 13:06:00,
2013-02-16 08:11:00,27.9,26.0,29.21,NW,315,0.0,-999.0,95,0.00,,,0.00,Rainwise IP-100,2013-02-16 13:11:00,
2013-02-16 08:16:00,28.2,26.0,29.21,NNW,337,2.0,-999.0,91,0.00,,,0.00,Rainwise IP-100,2013-02-16 13:16:00,
2013-02-16 08:22:00,28.6,26.0,29.21,NW,315,0.0,-999.0,90,0.00,,,0.00,Rainwise IP-100,2013-02-16 13:22:00,
2013-02-16 08:27:00,28.9,26.0,29.21,NW,315,0.0,-999.0,89,0.00,,,0.00,Rainwise IP-100,2013-02-16 13:27:00,
2013-02-16 08:32:00,29.3,26.0,29.21,North,360,2.0,-999.0,86,0.00,,,0.00,Rainwise IP-100,2013-02-16 13:32:00,
2013-02-16 08:37:00,29.5,26.0,29.21,WNW,292,1.0,-999.0,82,0.00,,,0.00,Rainwise IP-100,2013-02-16 13:37:00,
2013-02-16 08:42:00,29.8,26.0,29.21,NNW,337,4.0,-999.0,83,0.00,,,0.00,Rainwise IP-100,2013-02-16 13:42:00,
2013-02-16 08:47:00,30.2,26.0,29.21,NNW,337,0.0,-999.0,81,0.00,,,0.00,Rainwise IP-100,2013-02-16 13:47:00,
2013-02-16 08:52:00,30.5,26.0,29.21,NW,315,5.0,-999.0,80,0.00,,,0.00,Rainwise IP-100,2013-02-16 13:52:00,
2013-02-16 08:58:00,30.4,24.0,29.21,West,270,5.0,-999.0,74,0.00,,,0.00,Rainwise IP-100,2013-02-16 13:58:00,
2013-02-16 09:03:00,30.5,24.0,29.21,WNW,292,6.0,-999.0,74,0.00,,,0.00,Rainwise IP-100,2013-02-16 14:03:00,
2013-02-16 09:08:00,30.6,23.0,29.21,NNW,337,3.0,-999.0,72,0.06,,,0.01,Rainwise IP-100,2013-02-16 14:08:00,
2013-02-16 09:13:00,30.9,23.0,29.20,WNW,292,6.0,-999.0,70,0.06,,,0.01,Rainwise IP-100,2013-02-16 14:13:00,
2013-02-16 09:18:00,31.0,23.0,29.21,WNW,292,4.0,-999.0,72,0.00,,,0.01,Rainwise IP-100,2013-02-16 14:18:00,
2013-02-16 09:23:00,31.0,23.0,29.21,NW,315,5.0,-999.0,70,0.00,,,0.01,Rainwise IP-100,2013-02-16 14:23:00,
2013-02-16 09:28:00,30.9,23.0,29.21,West,270,8.0,-999.0,68,0.00,,,0.01,Rainwise IP-100,2013-02-16 14:28:00,
2013-02-16 09:33:00,31.1,23.0,29.20,WNW,292,6.0,-999.0,68,0.00,,,0.01,Rainwise IP-100,2013-02-16 14:33:00,
2013-02-16 09:39:00,31.5,23.0,29.21,WNW,292,5.0,-999.0,68,0.00,,,0.01,Rainwise IP-100,2013-02-16 14:39:00,
2013-02-16 09:44:00,31.3,21.0,29.21,WNW,292,7.0,-999.0,65,0.00,,,0.01,Rainwise IP-100,2013-02-16 14:44:00,
2013-02-16 09:49:00,31.4,21.0,29.21,SW,225,5.0,-999.0,67,0.00,,,0.01,Rainwise IP-100,2013-02-16 14:49:00,
2013-02-16 09:54:00,31.7,23.0,29.21,NNW,337,6.0,-999.0,65,0.00,,,0.01,Rainwise IP-100,2013-02-16 14:54:00,
2013-02-16 09:59:00,32.2,23.0,29.21,WNW,292,6.0,-999.0,65,0.00,,,0.01,Rainwise IP-100,2013-02-16 14:59:00,
2013-02-16 10:04:00,31.9,21.0,29.21,WNW,292,7.0,-999.0,63,0.00,,,0.01,Rainwise IP-100,2013-02-16 15:04:00,
2013-02-16 10:09:00,31.6,23.0,29.21,NNW,337,6.0,-999.0,64,0.00,,,0.01,Rainwise IP-100,2013-02-16 15:09:00,
2013-02-16 10:15:00,31.6,23.0,29.20,North,360,5.0,-999.0,65,0.00,,,0.01,Rainwise IP-100,2013-02-16 15:15:00,
2013-02-16 10:20:00,31.9,21.0,29.20,NNE,22,6.0,-999.0,63,0.00,,,0.01,Rainwise IP-100,2013-02-16 15:20:00,
2013-02-16 10:25:00,31.9,21.0,29.20,WNW,292,4.0,-999.0,63,0.00,,,0.01,Rainwise IP-100,2013-02-16 15:25:00,
2013-02-16 10:30:00,32.0,21.0,29.20,NNW,337,6.0,-999.0,63,0.00,,,0.01,Rainwise IP-100,2013-02-16 15:30:00,
2013-02-16 10:35:00,32.0,21.0,29.20,WSW,247,6.0,-999.0,62,0.00,,,0.01,Rainwise IP-100,2013-02-16 15:35:00,
2013-02-16 10:40:00,31.9,21.0,29.20,WNW,292,4.0,-999.0,62,0.00,,,0.01,Rainwise IP-100,2013-02-16 15:40:00,
2013-02-16 10:45:00,31.9,21.0,29.20,WNW,292,6.0,-999.0,63,0.00,,,0.01,Rainwise IP-100,2013-02-16 15:45:00,
2013-02-16 10:50:00,31.9,23.0,29.20,WNW,292,5.0,-999.0,65,0.00,,,0.01,Rainwise IP-100,2013-02-16 15:50:00,
2013-02-16 10:56:00,31.8,23.0,29.20,WNW,292,8.0,-999.0,65,0.00,,,0.01,Rainwise IP-100,2013-02-16 15:56:00,
2013-02-16 11:01:00,31.4,21.0,29.21,WNW,292,2.0,-999.0,63,0.00,,,0.01,Rainwise IP-100,2013-02-16 16:01:00,
2013-02-16 11:06:00,31.5,21.0,29.21,NW,315,8.0,-999.0,63,0.00,,,0.01,Rainwise IP-100,2013-02-16 16:06:00,
2013-02-16 11:11:00,31.7,21.0,29.21,NW,315,7.0,-999.0,60,0.00,,,0.01,Rainwise IP-100,2013-02-16 16:11:00,
2013-02-16 11:16:00,32.0,21.0,29.20,West,270,7.0,-999.0,62,0.00,,,0.01,Rainwise IP-100,2013-02-16 16:16:00,
2013-02-16 11:21:00,32.7,21.0,29.19,WNW,292,6.0,-999.0,59,0.00,,,0.01,Rainwise IP-100,2013-02-16 16:21:00,
2013-02-16 11:26:00,32.8,21.0,29.19,WNW,292,6.0,-999.0,58,0.00,,,0.01,Rainwise IP-100,2013-02-16 16:26:00,
2013-02-16 11:31:00,32.9,21.0,29.19,SW,225,6.0,-999.0,58,0.00,,,0.01,Rainwise IP-100,2013-02-16 16:31:00,
2013-02-16 11:37:00,33.1,21.0,29.19,West,270,6.0,-999.0,58,0.00,,,0.01,Rainwise IP-100,2013-02-16 16:37:00,
2013-02-16 11:42:00,32.7,21.0,29.19,NW,315,6.0,-999.0,58,0.00,,,0.01,Rainwise IP-100,2013-02-16 16:42:00,
2013-02-16 11:47:00,32.8,21.0,29.19,WNW,292,6.0,-999.0,57,0.00,,,0.01,Rainwise IP-100,2013-02-16 16:47:00,
2013-02-16 11:52:00,32.9,21.0,29.18,NW,315,9.0,-999.0,57,0.00,,,0.01,Rainwise IP-100,2013-02-16 16:52:00,
2013-02-16 11:57:00,32.8,21.0,29.18,West,270,4.0,-999.0,57,0.00,,,0.01,Rainwise IP-100,2013-02-16 16:57:00,
2013-02-16 12:02:00,32.8,21.0,29.18,West,270,3.0,-999.0,58,0.00,,,0.01,Rainwise IP-100,2013-02-16 17:02:00,
2013-02-16 12:07:00,33.6,23.0,29.17,WNW,292,10.0,-999.0,58,0.00,,,0.01,Rainwise IP-100,2013-02-16 17:07:00,
2013-02-16 12:12:00,33.7,21.0,29.17,SW,225,3.0,-999.0,56,0.00,,,0.01,Rainwise IP-100,2013-02-16 17:12:00,
2013-02-16 12:18:00,34.1,21.0,29.17,West,270,5.0,-999.0,57,0.00,,,0.01,Rainwise IP-100,2013-02-16 17:18:00,
2013-02-16 12:23:00,33.9,21.0,29.17,West,270,6.0,-999.0,56,0.00,,,0.01,Rainwise IP-100,2013-02-16 17:23:00,
2013-02-16 12:28:00,33.9,21.0,29.17,NW,315,4.0,-999.0,56,0.00,,,0.01,Rainwise IP-100,2013-02-16 17:28:00,
2013-02-16 12:33:00,34.3,21.0,29.17,NW,315,5.0,-999.0,55,0.00,,,0.01,Rainwise IP-100,2013-02-16 17:33:00,
2013-02-16 12:38:00,34.0,21.0,29.17,West,270,6.0,-999.0,56,0.00,,,0.01,Rainwise IP-100,2013-02-16 17:38:00,
2013-02-16 12:43:00,33.9,21.0,29.17,West,270,5.0,-999.0,56,0.00,,,0.01,Rainwise IP-100,2013-02-16 17:43:00,
2013-02-16 12:48:00,33.8,21.0,29.17,West,270,4.0,-999.0,56,0.00,,,0.01,Rainwise IP-100,2013-02-16 17:48:00,
2013-02-16 12:54:00,33.7,21.0,29.17,NW,315,8.0,-999.0,56,0.00,,,0.01,Rainwise IP-100,2013-02-16 17:54:00,
2013-02-16 12:59:00,33.4,21.0,29.17,West,270,6.0,-999.0,59,0.00,,,0.01,Rainwise IP-100,2013-02-16 17:59:00,
2013-02-16 13:04:00,33.7,21.0,29.17,NNW,337,7.0,-999.0,57,0.00,,,0.01,Rainwise IP-100,2013-02-16 18:04:00,
2013-02-16 13:09:00,33.9,21.0,29.17,WNW,292,6.0,-999.0,56,0.00,,,0.01,Rainwise IP-100,2013-02-16 18:09:00,
2013-02-16 13:14:00,34.5,21.0,29.16,WSW,247,7.0,-999.0,53,0.00,,,0.01,Rainwise IP-100,2013-02-16 18:14:00,
2013-02-16 13:19:00,33.7,21.0,29.16,West,270,7.0,-999.0,53,0.00,,,0.01,Rainwise IP-100,2013-02-16 18:19:00,
2013-02-16 13:24:00,33.9,21.0,29.16,NW,315,3.0,-999.0,55,0.00,,,0.01,Rainwise IP-100,2013-02-16 18:24:00,
2013-02-16 13:29:00,33.9,21.0,29.16,NNW,337,7.0,-999.0,56,0.00,,,0.01,Rainwise IP-100,2013-02-16 18:29:00,
2013-02-16 13:35:00,34.1,21.0,29.17,NW,315,7.0,-999.0,54,0.00,,,0.01,Rainwise IP-100,2013-02-16 18:35:00,
2013-02-16 13:40:00,33.5,21.0,29.16,WSW,247,5.0,-999.0,54,0.00,,,0.01,Rainwise IP-100,2013-02-16 18:40:00,
2013-02-16 13:45:00,33.5,21.0,29.16,NW,315,5.0,-999.0,54,0.00,,,0.01,Rainwise IP-100,2013-02-16 18:45:00,
2013-02-16 13:50:00,33.8,21.0,29.16,NW,315,9.0,-999.0,55,0.00,,,0.01,Rainwise IP-100,2013-02-16 18:50:00,
2013-02-16 13:55:00,33.9,21.0,29.16,NW,315,2.0,-999.0,53,0.00,,,0.01,Rainwise IP-100,2013-02-16 18:55:00,
2013-02-16 14:00:00,34.5,18.0,29.16,WNW,292,6.0,-999.0,52,0.00,,,0.01,Rainwise IP-100,2013-02-16 19:00:00,
2013-02-16 14:05:00,33.7,21.0,29.16,WSW,247,5.0,-999.0,54,0.00,,,0.01,Rainwise IP-100,2013-02-16 19:05:00,
2013-02-16 14:11:00,33.1,18.0,29.16,West,270,6.0,-999.0,54,0.00,,,0.01,Rainwise IP-100,2013-02-16 19:11:00,
2013-02-16 14:16:00,33.3,18.0,29.16,WSW,247,4.0,-999.0,54,0.00,,,0.01,Rainwise IP-100,2013-02-16 19:16:00,
2013-02-16 14:21:00,33.4,18.0,29.16,NNW,337,6.0,-999.0,54,0.00,,,0.01,Rainwise IP-100,2013-02-16 19:21:00,
2013-02-16 14:26:00,34.1,18.0,29.16,NW,315,6.0,-999.0,51,0.00,,,0.01,Rainwise IP-100,2013-02-16 19:26:00,
2013-02-16 14:31:00,33.8,18.0,29.15,NW,315,5.0,-999.0,51,0.00,,,0.01,Rainwise IP-100,2013-02-16 19:31:00,
2013-02-16 14:36:00,34.0,18.0,29.16,NNE,22,5.0,-999.0,52,0.00,,,0.01,Rainwise IP-100,2013-02-16 19:36:00,
2013-02-16 14:41:00,33.9,18.0,29.15,WNW,292,9.0,-999.0,50,0.00,,,0.01,Rainwise IP-100,2013-02-16 19:41:00,
2013-02-16 14:46:00,34.1,18.0,29.16,NNW,337,2.0,-999.0,52,0.00,,,0.01,Rainwise IP-100,2013-02-16 19:46:00,
2013-02-16 14:52:00,34.4,18.0,29.16,NW,315,4.0,-999.0,50,0.00,,,0.01,Rainwise IP-100,2013-02-16 19:52:00,
2013-02-16 14:57:00,33.8,18.0,29.16,NW,315,6.0,-999.0,52,0.00,,,0.01,Rainwise IP-100,2013-02-16 19:57:00,
2013-02-16 15:02:00,34.4,18.0,29.15,NNW,337,7.0,-999.0,50,0.00,,,0.01,Rainwise IP-100,2013-02-16 20:02:00,
2013-02-16 15:07:00,35.7,18.0,29.16,NW,315,5.0,-999.0,47,0.00,,,0.01,Rainwise IP-100,2013-02-16 20:07:00,
2013-02-16 15:12:00,35.3,16.0,29.16,NNW,337,4.0,-999.0,47,0.00,,,0.01,Rainwise IP-100,2013-02-16 20:12:00,
2013-02-16 15:17:00,34.5,18.0,29.16,North,360,5.0,-999.0,48,0.00,,,0.01,Rainwise IP-100,2013-02-16 20:17:00,
2013-02-16 15:22:00,33.5,16.0,29.16,WNW,292,6.0,-999.0,47,0.00,,,0.01,Rainwise IP-100,2013-02-16 20:22:00,
2013-02-16 15:28:00,33.1,18.0,29.15,North,360,5.0,-999.0,51,0.00,,,0.01,Rainwise IP-100,2013-02-16 20:28:00,
2013-02-16 15:33:00,32.8,18.0,29.15,NNE,22,6.0,-999.0,50,0.00,,,0.01,Rainwise IP-100,2013-02-16 20:33:00,
2013-02-16 15:38:00,32.5,18.0,29.15,NW,315,5.0,-999.0,50,0.00,,,0.01,Rainwise IP-100,2013-02-16 20:38:00,
2013-02-16 15:43:00,33.3,16.0,29.14,NNW,337,4.0,-999.0,49,0.00,,,0.01,Rainwise IP-100,2013-02-16 20:43:00,
2013-02-16 15:48:00,33.7,18.0,29.14,NE,45,6.0,-999.0,48,0.00,,,0.01,Rainwise IP-100,2013-02-16 20:48:00,
2013-02-16 15:53:00,33.5,18.0,29.15,NNE,22,3.0,-999.0,49,0.00,,,0.01,Rainwise IP-100,2013-02-16 20:53:00,
2013-02-16 15:58:00,33.1,18.0,29.14,NNW,337,10.0,-999.0,50,0.00,,,0.01,Rainwise IP-100,2013-02-16 20:58:00,
2013-02-16 16:03:00,32.8,16.0,29.14,NNW,337,2.0,-999.0,49,0.00,,,0.01,Rainwise IP-100,2013-02-16 21:03:00,
2013-02-16 16:09:00,32.1,16.0,29.13,North,360,4.0,-999.0,52,0.00,,,0.01,Rainwise IP-100,2013-02-16 21:09:00,
2013-02-16 16:14:00,31.4,16.0,29.13,NNW,337,6.0,-999.0,50,0.00,,,0.01,Rainwise IP-100,2013-02-16 21:14:00,
2013-02-16 16:19:00,31.0,16.0,29.13,NNW,337,6.0,-999.0,51,0.00,,,0.01,Rainwise IP-100,2013-02-16 21:19:00,
2013-02-16 16:24:00,30.9,16.0,29.13,NNW,337,3.0,-999.0,52,0.00,,,0.01,Rainwise IP-100,2013-02-16 21:24:00,
2013-02-16 16:29:00,30.7,16.0,29.13,NNW,337,4.0,-999.0,52,0.00,,,0.01,Rainwise IP-100,2013-02-16 21:29:00,
2013-02-16 16:34:00,30.5,16.0,29.12,North,360,1.0,-999.0,52,0.00,,,0.01,Rainwise IP-100,2013-02-16 21:34:00,
2013-02-16 16:39:00,30.3,16.0,29.12,North,360,3.0,-999.0,52,0.00,,,0.01,Rainwise IP-100,2013-02-16 21:39:00,
2013-02-16 16:45:00,30.1,16.0,29.12,North,360,7.0,-999.0,53,0.00,,,0.01,Rainwise IP-100,2013-02-16 21:45:00,
2013-02-16 16:50:00,30.1,16.0,29.13,NW,315,3.0,-999.0,55,0.00,,,0.01,Rainwise IP-100,2013-02-16 21:50:00,
2013-02-16 16:55:00,29.9,16.0,29.13,NNW,337,6.0,-999.0,55,0.00,,,0.01,Rainwise IP-100,2013-02-16 21:55:00,
2013-02-16 17:00:00,30.2,16.0,29.13,NW,315,5.0,-999.0,55,0.00,,,0.01,Rainwise IP-100,2013-02-16 22:00:00,
2013-02-16 17:05:00,30.1,16.0,29.13,NNW,337,5.0,-999.0,55,0.00,,,0.01,Rainwise IP-100,2013-02-16 22:05:00,
2013-02-16 17:10:00,29.8,16.0,29.13,NW,315,9.0,-999.0,55,0.00,,,0.01,Rainwise IP-100,2013-02-16 22:10:00,
2013-02-16 17:15:00,29.6,16.0,29.13,NNW,337,6.0,-999.0,55,0.00,,,0.01,Rainwise IP-100,2013-02-16 22:15:00,
2013-02-16 17:20:00,29.5,18.0,29.13,North,360,2.0,-999.0,56,0.00,,,0.01,Rainwise IP-100,2013-02-16 22:20:00,
2013-02-16 17:26:00,29.2,16.0,29.13,NNW,337,6.0,-999.0,56,0.00,,,0.01,Rainwise IP-100,2013-02-16 22:26:00,
2013-02-16 17:31:00,29.1,16.0,29.14,NW,315,8.0,-999.0,57,0.00,,,0.01,Rainwise IP-100,2013-02-16 22:31:00,
2013-02-16 17:36:00,28.9,16.0,29.14,NW,315,6.0,-999.0,57,0.00,,,0.01,Rainwise IP-100,2013-02-16 22:36:00,
2013-02-16 17:41:00,28.9,16.0,29.14,NW,315,2.0,-999.0,58,0.00,,,0.01,Rainwise IP-100,2013-02-16 22:41:00,
2013-02-16 17:46:00,28.8,16.0,29.14,NW,315,3.0,-999.0,58,0.00,,,0.01,Rainwise IP-100,2013-02-16 22:46:00,
2013-02-16 17:51:00,28.5,16.0,29.13,NNW,337,6.0,-999.0,58,0.00,,,0.01,Rainwise IP-100,2013-02-16 22:51:00,
2013-02-16 17:56:00,28.4,16.0,29.14,NW,315,5.0,-999.0,61,0.00,,,0.01,Rainwise IP-100,2013-02-16 22:56:00,
2013-02-16 18:02:00,28.4,16.0,29.14,NW,315,4.0,-999.0,61,0.00,,,0.01,Rainwise IP-100,2013-02-16 23:02:00,
2013-02-16 18:07:00,28.5,18.0,29.13,NNE,22,2.0,-999.0,60,0.00,,,0.01,Rainwise IP-100,2013-02-16 23:07:00,
2013-02-16 18:12:00,28.4,16.0,29.13,NW,315,2.0,-999.0,61,0.00,,,0.01,Rainwise IP-100,2013-02-16 23:12:00,
2013-02-16 18:17:00,28.4,16.0,29.13,NNW,337,5.0,-999.0,61,0.00,,,0.01,Rainwise IP-100,2013-02-16 23:17:00,
2013-02-16 18:22:00,28.1,16.0,29.13,NW,315,7.0,-999.0,61,0.00,,,0.01,Rainwise IP-100,2013-02-16 23:22:00,
2013-02-16 18:27:00,28.1,16.0,29.13,WNW,292,6.0,-999.0,62,0.00,,,0.01,Rainwise IP-100,2013-02-16 23:27:00,
2013-02-16 18:32:00,28.0,16.0,29.13,NNW,337,4.0,-999.0,62,0.00,,,0.01,Rainwise IP-100,2013-02-16 23:32:00,
2013-02-16 18:37:00,27.9,16.0,29.13,NNW,337,4.0,-999.0,62,0.00,,,0.01,Rainwise IP-100,2013-02-16 23:37:00,
2013-02-16 18:43:00,27.8,16.0,29.12,WNW,292,6.0,-999.0,62,0.00,,,0.01,Rainwise IP-100,2013-02-16 23:43:00,
2013-02-16 18:48:00,27.7,16.0,29.12,NNW,337,5.0,-999.0,62,0.00,,,0.01,Rainwise IP-100,2013-02-16 23:48:00,
2013-02-16 18:53:00,27.7,16.0,29.12,NW,315,6.0,-999.0,63,0.00,,,0.01,Rainwise IP-100,2013-02-16 23:53:00,
2013-02-16 18:58:00,27.7,16.0,29.13,NW,315,7.0,-999.0,62,0.00,,,0.01,Rainwise IP-100,2013-02-16 23:58:00,
2013-02-16 19:03:00,27.6,16.0,29.13,NNW,337,9.0,-999.0,63,0.00,,,0.01,Rainwise IP-100,2013-02-17 00:03:00,
2013-02-16 19:08:00,27.6,16.0,29.13,NNE,22,4.0,-999.0,62,0.00,,,0.01,Rainwise IP-100,2013-02-17 00:08:00,
2013-02-16 19:13:00,27.5,16.0,29.12,NW,315,6.0,-999.0,62,0.00,,,0.01,Rainwise IP-100,2013-02-17 00:13:00,
2013-02-16 19:19:00,27.6,16.0,29.11,NW,315,6.0,-999.0,61,0.00,,,0.01,Rainwise IP-100,2013-02-17 00:19:00,
2013-02-16 19:24:00,27.6,16.0,29.12,WNW,292,5.0,-999.0,61,0.00,,,0.01,Rainwise IP-100,2013-02-17 00:24:00,
2013-02-16 19:29:00,27.2,16.0,29.12,NNE,22,6.0,-999.0,60,0.00,,,0.01,Rainwise IP-100,2013-02-17 00:29:00,
2013-02-16 19:34:00,27.1,16.0,29.12,North,360,6.0,-999.0,59,0.00,,,0.01,Rainwise IP-100,2013-02-17 00:34:00,
2013-02-16 19:39:00,26.9,16.0,29.12,NNE,22,6.0,-999.0,59,0.00,,,0.01,Rainwise IP-100,2013-02-17 00:39:00,
2013-02-16 19:44:00,26.8,16.0,29.12,WNW,292,9.0,-999.0,59,0.00,,,0.01,Rainwise IP-100,2013-02-17 00:44:00,
2013-02-16 19:49:00,26.7,16.0,29.12,NNE,22,6.0,-999.0,58,0.00,,,0.01,Rainwise IP-100,2013-02-17 00:49:00,
2013-02-16 19:54:00,26.5,16.0,29.11,NW,315,5.0,-999.0,57,0.00,,,0.01,Rainwise IP-100,2013-02-17 00:54:00,
2013-02-16 20:00:00,26.4,14.0,29.11,NW,315,7.0,-999.0,56,0.00,,,0.01,Rainwise IP-100,2013-02-17 01:00:00,
2013-02-16 20:05:00,26.3,14.0,29.11,NW,315,6.0,-999.0,57,0.00,,,0.01,Rainwise IP-100,2013-02-17 01:05:00,
2013-02-16 20:10:00,26.2,14.0,29.11,NE,45,5.0,-999.0,57,0.00,,,0.01,Rainwise IP-100,2013-02-17 01:10:00,
2013-02-16 20:15:00,26.1,14.0,29.13,NNW,337,2.0,-999.0,56,0.00,,,0.01,Rainwise IP-100,2013-02-17 01:15:00,
2013-02-16 20:20:00,26.1,14.0,29.13,NNW,337,6.0,-999.0,56,0.00,,,0.01,Rainwise IP-100,2013-02-17 01:20:00,
2013-02-16 20:25:00,26.2,14.0,29.12,North,360,7.0,-999.0,55,0.00,,,0.01,Rainwise IP-100,2013-02-17 01:25:00,
2013-02-16 20:30:00,25.9,14.0,29.12,NNE,22,9.0,-999.0,55,0.00,,,0.01,Rainwise IP-100,2013-02-17 01:30:00,
2013-02-16 20:36:00,25.9,14.0,29.12,NNE,22,10.0,-999.0,55,0.00,,,0.01,Rainwise IP-100,2013-02-17 01:36:00,
2013-02-16 20:41:00,25.7,14.0,29.12,NE,45,6.0,-999.0,55,0.00,,,0.01,Rainwise IP-100,2013-02-17 01:41:00,
2013-02-16 20:46:00,25.6,14.0,29.12,NW,315,8.0,-999.0,55,0.00,,,0.01,Rainwise IP-100,2013-02-17 01:46:00,
2013-02-16 20:51:00,25.5,14.0,29.12,NW,315,6.0,-999.0,55,0.00,,,0.01,Rainwise IP-100,2013-02-17 01:51:00,
2013-02-16 20:56:00,25.4,14.0,29.12,North,360,2.0,-999.0,54,0.00,,,0.01,Rainwise IP-100,2013-02-17 01:56:00,
2013-02-16 21:01:00,25.3,11.0,29.12,North,360,6.0,-999.0,52,0.00,,,0.01,Rainwise IP-100,2013-02-17 02:01:00,
2013-02-16 21:06:00,25.1,11.0,29.12,NNE,22,5.0,-999.0,49,0.00,,,0.01,Rainwise IP-100,2013-02-17 02:06:00,
2013-02-16 21:11:00,24.9,11.0,29.12,NNW,337,5.0,-999.0,48,0.00,,,0.01,Rainwise IP-100,2013-02-17 02:11:00,
2013-02-16 21:17:00,24.7,11.0,29.12,NW,315,6.0,-999.0,48,0.00,,,0.01,Rainwise IP-100,2013-02-17 02:17:00,
2013-02-16 21:22:00,24.6,11.0,29.12,North,360,6.0,-999.0,47,0.00,,,0.01,Rainwise IP-100,2013-02-17 02:22:00,
2013-02-16 21:27:00,24.5,11.0,29.11,NNW,337,9.0,-999.0,48,0.00,,,0.01,Rainwise IP-100,2013-02-17 02:27:00,
2013-02-16 21:32:00,24.4,8.0,29.11,NNW,337,1.0,-999.0,48,0.00,,,0.01,Rainwise IP-100,2013-02-17 02:32:00,
2013-02-16 21:37:00,24.3,8.0,29.11,NNW,337,5.0,-999.0,46,0.00,,,0.01,Rainwise IP-100,2013-02-17 02:37:00,
2013-02-16 21:42:00,23.9,8.0,29.11,NNW,337,7.0,-999.0,47,0.00,,,0.01,Rainwise IP-100,2013-02-17 02:42:00,
2013-02-16 21:47:00,23.9,8.0,29.12,NW,315,6.0,-999.0,45,0.00,,,0.01,Rainwise IP-100,2013-02-17 02:47:00,
2013-02-16 21:53:00,23.7,8.0,29.11,NNW,337,5.0,-999.0,45,0.00,,,0.01,Rainwise IP-100,2013-02-17 02:53:00,
2013-02-16 21:58:00,23.5,8.0,29.11,North,360,6.0,-999.0,43,0.00,,,0.01,Rainwise IP-100,2013-02-17 02:58:00,
2013-02-16 22:03:00,23.4,4.0,29.11,NW,315,12.0,-999.0,43,0.00,,,0.01,Rainwise IP-100,2013-02-17 03:03:00,
2013-02-16 22:08:00,23.3,4.0,29.11,NNW,337,4.0,-999.0,44,0.00,,,0.01,Rainwise IP-100,2013-02-17 03:08:00,
2013-02-16 22:13:00,23.2,4.0,29.10,NNE,22,10.0,-999.0,43,0.00,,,0.01,Rainwise IP-100,2013-02-17 03:13:00,
2013-02-16 22:18:00,23.0,4.0,29.10,NNE,22,7.0,-999.0,43,0.00,,,0.01,Rainwise IP-100,2013-02-17 03:18:00,
2013-02-16 22:23:00,22.9,4.0,29.10,North,360,6.0,-999.0,45,0.00,,,0.01,Rainwise IP-100,2013-02-17 03:23:00,
2013-02-16 22:28:00,22.8,4.0,29.10,NE,45,0.0,-999.0,43,0.00,,,0.01,Rainwise IP-100,2013-02-17 03:28:00,
2013-02-16 22:34:00,22.6,4.0,29.10,North,360,6.0,-999.0,44,0.00,,,0.01,Rainwise IP-100,2013-02-17 03:34:00,
2013-02-16 22:39:00,22.7,4.0,29.09,NNW,337,5.0,-999.0,45,0.00,,,0.01,Rainwise IP-100,2013-02-17 03:39:00,
2013-02-16 22:44:00,22.6,4.0,29.08,NNW,337,6.0,-999.0,45,0.00,,,0.01,Rainwise IP-100,2013-02-17 03:44:00,
2013-02-16 22:49:00,22.3,4.0,29.08,NNE,22,4.0,-999.0,45,0.00,,,0.01,Rainwise IP-100,2013-02-17 03:49:00,
2013-02-16 22:54:00,22.2,4.0,29.08,NNE,22,5.0,-999.0,45,0.00,,,0.01,Rainwise IP-100,2013-02-17 03:54:00,
2013-02-16 22:59:00,22.2,8.0,29.08,NNW,337,10.0,-999.0,46,0.00,,,0.01,Rainwise IP-100,2013-02-17 03:59:00,
2013-02-16 23:04:00,22.1,8.0,29.07,North,360,1.0,-999.0,46,0.00,,,0.01,Rainwise IP-100,2013-02-17 04:04:00,
2013-02-16 23:10:00,22.0,8.0,29.07,NNE,22,3.0,-999.0,47,0.00,,,0.01,Rainwise IP-100,2013-02-17 04:10:00,
2013-02-16 23:15:00,21.9,8.0,29.07,North,360,7.0,-999.0,46,0.00,,,0.01,Rainwise IP-100,2013-02-17 04:15:00,
2013-02-16 23:20:00,21.9,8.0,29.06,North,360,7.0,-999.0,48,0.00,,,0.01,Rainwise IP-100,2013-02-17 04:20:00,
2013-02-16 23:25:00,21.8,8.0,29.06,NW,315,7.0,-999.0,48,0.00,,,0.01,Rainwise IP-100,2013-02-17 04:25:00,
2013-02-16 23:30:00,21.7,8.0,29.06,NW,315,9.0,-999.0,46,0.00,,,0.01,Rainwise IP-100,2013-02-17 04:30:00,
2013-02-16 23:35:00,21.5,8.0,29.06,WNW,292,9.0,-999.0,46,0.00,,,0.01,Rainwise IP-100,2013-02-17 04:35:00,
2013-02-16 23:40:00,21.6,8.0,29.05,North,360,5.0,-999.0,48,0.00,,,0.01,Rainwise IP-100,2013-02-17 04:40:00,
2013-02-16 23:45:00,21.5,8.0,29.06,NNW,337,9.0,-999.0,46,0.00,,,0.01,Rainwise IP-100,2013-02-17 04:45:00,
2013-02-16 23:51:00,21.2,4.0,29.07,NW,315,7.0,-999.0,46,0.00,,,0.01,Rainwise IP-100,2013-02-17 04:51:00,
2013-02-16 23:56:00,21.1,4.0,29.07,ENE,67,9.0,-999.0,46,0.00,,,0.01,Rainwise IP-100,2013-02-17 04:56:00,